Time;durP1;ratioP1;P1;durP2;ratioP2;P2;SDS_P1;SDS_P2;PMS_P1;PMS_P2;Temp;Humidity;BMP_temperature;BMP_pressure;BME280_temperature;BME280_humidity;BME280_pressure;Samples;Min_cycle;Max_cycle;Signal;HPM_P1;HPM_P2
2021/12/04 00:01:23;;;;;;;2.50;1.47;;;12.60;99.90;;;;;;5017854;28;20216;-66
2021/12/04 00:03:50;;;;;;;2.80;1.60;;;12.60;99.90;;;;;;5005656;28;20193;-65
2021/12/04 00:06:23;;;;;;;4.93;1.63;;;12.60;99.90;;;;;;5004040;28;20196;-66
2021/12/04 00:08:49;;;;;;;2.90;1.50;;;12.60;99.90;;;;;;5007105;28;20229;-66
2021/12/04 00:11:17;;;;;;;3.33;1.53;;;12.60;99.90;;;;;;5006420;28;20232;-66
2021/12/04 00:13:43;;;;;;;4.13;1.63;;;12.50;99.90;;;;;;5007017;28;20201;-65
2021/12/04 00:16:10;;;;;;;3.10;1.50;;;12.50;99.90;;;;;;5005269;28;20343;-65
2021/12/04 00:18:36;;;;;;;4.30;1.60;;;12.50;99.90;;;;;;5006725;28;20184;-65
2021/12/04 00:21:02;;;;;;;4.17;1.63;;;12.40;99.90;;;;;;5007216;28;20316;-66
2021/12/04 00:23:29;;;;;;;3.13;1.70;;;12.40;99.90;;;;;;5006793;28;20893;-65
2021/12/04 00:25:55;;;;;;;5.43;1.60;;;12.40;99.90;;;;;;5038599;28;20235;-64
2021/12/04 00:28:21;;;;;;;4.07;1.77;;;12.40;99.90;;;;;;5006745;28;20228;-65
2021/12/04 00:30:49;;;;;;;2.77;1.70;;;12.30;99.90;;;;;;5007639;28;20306;-65
2021/12/04 00:33:19;;;;;;;3.67;1.50;;;12.30;99.90;;;;;;5008055;28;20258;-65
2021/12/04 00:49:13;;;;;;;5.67;1.60;;;12.20;99.90;;;;;;5038786;28;20697;-65
2021/12/04 00:51:49;;;;;;;2.33;1.50;;;12.20;99.90;;;;;;5007372;28;20189;-64
2021/12/04 00:54:17;;;;;;;2.93;1.50;;;12.20;99.90;;;;;;5005323;28;20640;-64
2021/12/04 00:56:45;;;;;;;5.40;1.67;;;12.20;99.90;;;;;;5006943;28;20299;-66
2021/12/04 00:59:12;;;;;;;3.57;1.50;;;12.20;99.90;;;;;;5005005;28;20188;-66
2021/12/04 01:01:41;;;;;;;2.27;1.53;;;12.20;99.90;;;;;;5002671;28;20247;-65
2021/12/04 01:04:19;;;;;;;3.03;1.70;;;12.20;99.90;;;;;;5005936;28;20185;-66
2021/12/04 01:06:46;;;;;;;4.53;1.67;;;12.20;99.90;;;;;;4989016;28;20197;-65
2021/12/04 01:09:16;;;;;;;3.83;1.70;;;12.30;99.90;;;;;;5005772;28;20279;-65
2021/12/04 01:11:45;;;;;;;4.40;1.90;;;12.20;99.90;;;;;;5005809;28;20196;-65
2021/12/04 01:14:16;;;;;;;4.90;1.63;;;12.30;99.90;;;;;;5005807;28;20303;-65
2021/12/04 01:16:43;;;;;;;2.53;1.50;;;12.30;99.90;;;;;;5004808;28;20189;-66
2021/12/04 01:19:10;;;;;;;3.67;2.10;;;12.30;99.90;;;;;;5002276;28;20188;-66
2021/12/04 01:21:37;;;;;;;3.83;1.53;;;12.30;99.90;;;;;;5006124;28;20192;-65
2021/12/04 01:24:03;;;;;;;4.53;1.40;;;12.30;99.90;;;;;;5004794;28;20279;-62
2021/12/04 01:26:31;;;;;;;3.17;1.50;;;12.30;99.90;;;;;;5005170;28;20227;-65
2021/12/04 01:28:58;;;;;;;2.73;1.57;;;12.30;99.90;;;;;;5036688;28;20208;-63
2021/12/04 01:31:24;;;;;;;5.40;1.50;;;12.40;99.90;;;;;;5017711;28;20280;-64
2021/12/04 01:33:51;;;;;;;3.87;1.80;;;12.40;99.90;;;;;;5006912;28;20197;-63
2021/12/04 01:36:18;;;;;;;5.70;1.80;;;12.40;99.90;;;;;;5005424;28;20219;-64
2021/12/04 01:38:44;;;;;;;5.17;1.40;;;12.40;99.90;;;;;;5006339;28;20197;-64
2021/12/04 01:41:11;;;;;;;4.53;1.53;;;12.40;99.90;;;;;;5004295;28;20193;-64
2021/12/04 01:43:38;;;;;;;3.13;1.60;;;12.40;99.90;;;;;;5006471;28;20284;-64
2021/12/04 01:46:04;;;;;;;3.40;1.50;;;12.30;99.90;;;;;;5006223;28;20247;-64
2021/12/04 01:48:31;;;;;;;2.70;1.60;;;12.30;99.90;;;;;;5006285;28;20231;-64
2021/12/04 01:50:57;;;;;;;2.90;1.40;;;12.20;99.90;;;;;;5004684;28;20276;-64
2021/12/04 01:53:25;;;;;;;4.57;1.40;;;12.20;99.90;;;;;;5028920;28;20247;-64
2021/12/04 01:55:55;;;;;;;2.70;1.80;;;12.20;99.90;;;;;;5004706;28;20716;-65
2021/12/04 01:58:22;;;;;;;1.60;1.20;;;12.20;99.90;;;;;;5005759;28;20192;-64
2021/12/04 02:00:48;;;;;;;2.20;1.40;;;12.20;99.90;;;;;;5037371;28;20243;-64
2021/12/04 02:03:16;;;;;;;3.47;1.33;;;12.10;99.90;;;;;;5004558;28;20810;-64
2021/12/04 02:05:44;;;;;;;3.83;1.60;;;12.20;99.90;;;;;;5005532;28;20681;-64
2021/12/04 02:08:16;;;;;;;7.07;1.50;;;12.10;99.90;;;;;;5005574;28;20186;-64
2021/12/04 02:10:45;;;;;;;2.43;1.43;;;12.20;99.90;;;;;;5005571;28;20310;-64
2021/12/04 02:13:13;;;;;;;2.60;1.40;;;12.10;99.90;;;;;;5003877;28;20188;-63
2021/12/04 02:15:39;;;;;;;2.37;1.20;;;12.20;99.90;;;;;;5005657;28;20696;-63
2021/12/04 02:18:07;;;;;;;7.90;2.03;;;12.30;99.90;;;;;;5006413;28;20196;-64
2021/12/04 02:20:34;;;;;;;2.97;1.30;;;12.30;99.90;;;;;;5005765;28;20601;-64
2021/12/04 02:23:07;;;;;;;2.70;1.27;;;12.30;99.90;;;;;;5037367;28;20240;-64
2021/12/04 02:25:34;;;;;;;2.63;1.40;;;12.30;99.90;;;;;;5003648;28;20626;-64
2021/12/04 02:28:03;;;;;;;2.47;1.50;;;12.30;99.90;;;;;;5004846;28;20228;-64
2021/12/04 02:30:35;;;;;;;6.83;1.20;;;12.40;99.90;;;;;;5004149;28;20196;-63
2021/12/04 02:33:11;;;;;;;2.00;1.10;;;12.30;99.90;;;;;;5005662;28;20558;-64
2021/12/04 02:35:40;;;;;;;4.77;1.43;;;12.30;99.90;;;;;;5004467;28;20216;-64
2021/12/04 02:38:06;;;;;;;2.40;1.40;;;12.30;99.90;;;;;;5004201;28;20550;-64
2021/12/04 02:40:33;;;;;;;2.40;1.43;;;12.30;99.90;;;;;;5011476;28;20698;-63
2021/12/04 02:42:59;;;;;;;2.40;1.10;;;12.30;99.90;;;;;;5005598;28;20247;-63
2021/12/04 02:45:25;;;;;;;3.87;1.20;;;12.20;99.90;;;;;;5004663;28;20326;-64
2021/12/04 02:47:52;;;;;;;3.93;1.47;;;12.10;99.90;;;;;;5005648;28;20192;-64
2021/12/04 02:50:18;;;;;;;2.93;1.17;;;12.10;99.90;;;;;;5021388;28;20203;-64
2021/12/04 02:52:45;;;;;;;1.77;1.13;;;12.10;99.90;;;;;;4979705;28;20199;-64
2021/12/04 02:55:14;;;;;;;1.97;1.33;;;12.10;99.90;;;;;;5003536;28;20314;-64
2021/12/04 02:57:44;;;;;;;1.60;1.20;;;12.10;99.90;;;;;;5003629;28;20188;-64
2021/12/04 03:00:16;;;;;;;4.17;1.13;;;12.10;99.90;;;;;;5003888;28;20220;-64
2021/12/04 03:02:43;;;;;;;1.40;1.20;;;12.10;99.90;;;;;;5004730;28;20191;-64
2021/12/04 03:05:11;;;;;;;2.00;1.20;;;12.10;99.90;;;;;;5004896;28;20189;-64
2021/12/04 03:07:38;;;;;;;2.80;1.10;;;12.10;99.90;;;;;;5003526;28;20216;-63
2021/12/04 03:10:07;;;;;;;3.43;1.30;;;12.10;99.90;;;;;;5002094;28;20201;-63
2021/12/04 03:12:37;;;;;;;1.87;1.20;;;12.20;99.90;;;;;;5000131;28;20201;-65
2021/12/04 03:15:05;;;;;;;2.13;1.20;;;12.20;99.90;;;;;;5036395;28;20294;-64
2021/12/04 03:17:31;;;;;;;2.80;1.40;;;12.20;99.90;;;;;;5036845;28;20300;-64
2021/12/04 03:19:57;;;;;;;2.43;1.07;;;12.20;99.90;;;;;;5005782;28;20193;-64
2021/12/04 03:22:23;;;;;;;2.97;1.07;;;12.30;99.90;;;;;;5000381;28;20195;-64
2021/12/04 03:24:52;;;;;;;2.53;1.00;;;12.30;99.90;;;;;;4986594;28;20218;-64
2021/12/04 03:27:20;;;;;;;2.10;1.10;;;12.30;99.90;;;;;;5005348;28;20212;-64
2021/12/04 03:29:52;;;;;;;3.00;1.27;;;12.30;99.90;;;;;;5004849;28;20267;-64
2021/12/04 03:43:19;;;;;;;3.23;1.30;;;12.50;99.90;;;;;;5014412;28;20239;-66
2021/12/04 03:45:48;;;;;;;2.57;1.00;;;12.50;99.90;;;;;;5005521;28;20289;-66
2021/12/04 03:48:40;;;;;;;1.57;1.10;;;12.50;99.90;;;;;;5004765;28;20204;-67
2021/12/04 03:51:07;;;;;;;2.07;1.10;;;12.50;99.90;;;;;;5000713;28;20197;-65
2021/12/04 03:53:34;;;;;;;1.53;1.03;;;12.50;99.90;;;;;;5004884;28;20200;-66
2021/12/04 03:56:01;;;;;;;1.43;1.00;;;12.50;99.90;;;;;;5003288;28;20507;-66
2021/12/04 03:58:27;;;;;;;1.03;0.90;;;12.60;99.90;;;;;;5019328;28;20193;-65
2021/12/04 04:00:54;;;;;;;2.13;1.00;;;12.60;99.90;;;;;;5003979;28;20205;-62
2021/12/04 04:03:20;;;;;;;1.70;1.10;;;12.50;99.90;;;;;;5004988;28;20196;-64
2021/12/04 04:05:47;;;;;;;1.73;1.00;;;12.50;99.90;;;;;;5004593;28;20203;-64
2021/12/04 04:08:14;;;;;;;1.90;1.20;;;12.60;99.90;;;;;;5004425;28;20923;-63
2021/12/04 04:10:42;;;;;;;2.60;1.00;;;12.60;99.90;;;;;;5002118;28;20197;-64
2021/12/04 04:13:11;;;;;;;1.90;1.00;;;12.60;99.90;;;;;;5008546;28;20311;-64
2021/12/04 04:15:39;;;;;;;4.20;1.40;;;12.60;99.90;;;;;;5006702;28;20678;-64
2021/12/04 04:18:06;;;;;;;2.43;1.30;;;12.60;99.90;;;;;;5023335;28;20193;-64
2021/12/04 04:20:32;;;;;;;3.50;1.23;;;12.70;99.90;;;;;;5006932;28;20205;-63
2021/12/04 04:22:59;;;;;;;1.97;1.10;;;12.70;99.90;;;;;;5004888;28;20192;-65
2021/12/04 04:25:25;;;;;;;1.60;1.10;;;12.80;99.90;;;;;;5023703;28;20299;-65
2021/12/04 04:27:51;;;;;;;3.67;1.30;;;12.80;99.90;;;;;;5008358;28;20224;-66
2021/12/04 04:30:19;;;;;;;2.50;1.20;;;12.80;99.90;;;;;;5007547;28;20744;-66
2021/12/04 04:32:49;;;;;;;1.27;1.00;;;12.80;99.90;;;;;;5004794;28;20193;-66
2021/12/04 04:35:21;;;;;;;3.53;1.20;;;12.80;99.90;;;;;;5005662;28;20228;-66
2021/12/04 04:38:06;;;;;;;4.00;1.13;;;12.80;99.90;;;;;;5004008;28;21389;-66
2021/12/04 05:02:39;;;;;;;2.63;1.00;;;12.60;99.90;;;;;;5037325;28;20228;-66
2021/12/04 05:13:09;;;;;;;1.83;0.90;;;12.50;99.90;;;;;;5005003;28;20263;-65
2021/12/04 05:18:22;;;;;;;5.83;1.30;;;12.50;99.90;;;;;;5000447;28;20633;-65
2021/12/04 05:21:03;;;;;;;1.47;1.00;;;12.50;99.90;;;;;;4998770;28;20193;-65
2021/12/04 05:23:37;;;;;;;3.10;1.20;;;12.60;99.90;;;;;;5020793;28;20660;-64
2021/12/04 05:26:06;;;;;;;4.33;1.20;;;12.60;99.90;;;;;;5007542;28;20788;-64
2021/12/04 05:28:33;;;;;;;1.53;0.90;;;12.50;99.90;;;;;;5020997;28;20223;-64
2021/12/04 05:31:00;;;;;;;7.07;1.70;;;12.60;99.90;;;;;;5005104;28;20180;-64
2021/12/04 05:33:26;;;;;;;2.10;1.10;;;12.60;99.90;;;;;;5004766;28;20201;-64
2021/12/04 05:35:53;;;;;;;1.40;1.13;;;12.60;99.90;;;;;;5006576;28;20872;-64
2021/12/04 05:38:20;;;;;;;2.97;1.23;;;12.60;99.90;;;;;;5005226;28;20367;-64
2021/12/04 05:40:48;;;;;;;3.07;1.30;;;12.60;99.90;;;;;;5005467;28;20569;-64
2021/12/04 05:43:16;;;;;;;2.63;1.20;;;12.60;99.90;;;;;;5034794;28;20197;-64
2021/12/04 05:45:52;;;;;;;2.73;1.40;;;12.60;99.90;;;;;;4989068;28;20199;-64
2021/12/04 05:48:32;;;;;;;3.00;1.60;;;12.70;99.90;;;;;;5003355;28;20278;-64
2021/12/04 05:56:21;;;;;;;1.93;1.37;;;12.80;99.90;;;;;;5022442;28;20218;-64
2021/12/04 05:58:50;;;;;;;1.93;1.20;;;12.80;99.90;;;;;;5005976;28;20201;-66
2021/12/04 06:01:19;;;;;;;2.33;1.40;;;12.80;99.90;;;;;;5005495;28;20189;-64
2021/12/04 06:03:45;;;;;;;3.67;1.30;;;12.80;99.90;;;;;;4998044;28;20274;-65
2021/12/04 06:06:12;;;;;;;1.70;1.27;;;12.80;99.90;;;;;;5006820;28;20658;-65
2021/12/04 06:08:39;;;;;;;1.73;1.23;;;12.80;99.90;;;;;;5020437;28;20731;-65
2021/12/04 06:11:05;;;;;;;2.33;1.40;;;12.90;99.90;;;;;;5005055;28;20207;-65
2021/12/04 06:13:32;;;;;;;1.97;1.20;;;12.90;99.90;;;;;;5036686;28;20199;-65
2021/12/04 06:15:58;;;;;;;3.43;1.27;;;12.90;99.90;;;;;;5003655;28;20220;-64
2021/12/04 06:18:25;;;;;;;1.87;1.20;;;12.90;99.90;;;;;;5005411;28;20218;-65
2021/12/04 06:23:37;;;;;;;3.70;1.40;;;13.00;99.90;;;;;;5004399;28;20196;-65
2021/12/04 06:26:09;;;;;;;4.80;1.50;;;13.10;99.90;;;;;;5006597;28;20658;-65
2021/12/04 06:28:35;;;;;;;4.17;1.20;;;13.10;99.90;;;;;;5004217;28;20688;-66
2021/12/04 06:31:03;;;;;;;2.53;1.50;;;13.10;99.90;;;;;;4986569;28;20715;-65
2021/12/04 06:33:29;;;;;;;4.07;1.50;;;13.20;99.90;;;;;;5005656;28;20610;-66
2021/12/04 06:35:56;;;;;;;1.53;1.20;;;13.20;99.90;;;;;;5003266;28;20879;-66
2021/12/04 06:38:23;;;;;;;4.53;1.53;;;13.20;99.90;;;;;;5020126;28;20848;-66
2021/12/04 06:40:49;;;;;;;2.67;1.30;;;13.30;99.90;;;;;;5005748;28;20522;-65
2021/12/04 06:43:17;;;;;;;3.67;1.23;;;13.30;99.90;;;;;;5006495;28;20215;-66
2021/12/04 06:45:50;;;;;;;1.57;1.20;;;13.30;99.90;;;;;;5005275;28;20185;-66
2021/12/04 06:48:21;;;;;;;1.70;1.20;;;13.30;99.90;;;;;;5005604;28;20212;-68
2021/12/04 06:55:48;;;;;;;3.27;1.60;;;13.50;99.90;;;;;;5027085;28;20630;-64
2021/12/04 06:58:16;;;;;;;3.33;1.80;;;13.50;99.90;;;;;;5003257;28;20203;-64
2021/12/04 07:00:43;;;;;;;3.30;1.50;;;13.60;99.90;;;;;;5004973;28;20201;-65
2021/12/04 07:03:10;;;;;;;4.07;1.50;;;13.60;99.90;;;;;;5005660;28;20275;-65
2021/12/04 07:05:36;;;;;;;7.00;1.70;;;13.70;99.90;;;;;;5004975;28;20208;-66
2021/12/04 07:08:05;;;;;;;5.00;1.57;;;13.70;99.90;;;;;;5034233;28;20181;-66
2021/12/04 07:10:33;;;;;;;4.33;1.30;;;13.70;99.90;;;;;;5003882;28;21049;-66
2021/12/04 07:13:01;;;;;;;3.43;1.50;;;13.80;99.90;;;;;;5004805;28;20276;-64
2021/12/04 07:15:30;;;;;;;2.63;1.40;;;13.80;99.90;;;;;;5002830;28;20311;-65
2021/12/04 07:18:01;;;;;;;5.50;1.40;;;13.80;99.90;;;;;;5006369;28;20244;-65
2021/12/04 07:20:28;;;;;;;10.77;2.10;;;13.90;99.90;;;;;;5019901;28;20200;-65
2021/12/04 07:22:56;;;;;;;8.53;2.87;;;13.90;99.90;;;;;;4987588;28;20217;-67
2021/12/04 07:25:23;;;;;;;6.57;2.60;;;14.00;99.90;;;;;;5000272;28;20204;-65
2021/12/04 07:27:50;;;;;;;5.33;2.20;;;14.10;99.90;;;;;;5003233;28;20220;-65
2021/12/04 07:30:19;;;;;;;5.27;2.40;;;14.10;99.90;;;;;;5003535;28;20188;-65
2021/12/04 07:32:46;;;;;;;3.33;1.37;;;14.10;99.90;;;;;;5005400;28;20211;-67
2021/12/04 07:35:14;;;;;;;2.13;1.20;;;14.20;99.90;;;;;;5003529;28;20216;-65
2021/12/04 07:37:42;;;;;;;4.33;1.03;;;14.20;99.90;;;;;;5002571;28;20205;-66
2021/12/04 07:40:10;;;;;;;2.87;1.30;;;14.30;99.90;;;;;;5001594;28;20705;-67
2021/12/04 07:42:36;;;;;;;3.30;1.33;;;14.30;99.90;;;;;;5018794;28;20193;-67
2021/12/04 07:45:06;;;;;;;3.73;1.50;;;14.30;99.90;;;;;;5016154;28;20251;-65
2021/12/04 07:47:33;;;;;;;2.50;1.30;;;14.40;99.90;;;;;;5003966;28;20251;-66
2021/12/04 07:50:01;;;;;;;1.93;1.20;;;14.40;99.90;;;;;;5006928;28;20201;-65
2021/12/04 07:52:27;;;;;;;2.00;1.30;;;14.40;99.90;;;;;;5005194;28;20192;-66
2021/12/04 07:54:54;;;;;;;2.57;1.33;;;14.50;99.90;;;;;;5013746;28;20650;-67
2021/12/04 07:57:20;;;;;;;2.50;1.53;;;14.50;99.90;;;;;;5038492;28;20976;-65
2021/12/04 07:59:46;;;;;;;3.10;1.30;;;14.60;99.90;;;;;;5021761;28;20288;-66
2021/12/04 08:02:13;;;;;;;2.87;1.40;;;14.60;99.90;;;;;;5004301;28;20781;-65
2021/12/04 08:04:39;;;;;;;2.57;1.40;;;14.70;99.90;;;;;;5005440;28;20227;-67
2021/12/04 08:07:06;;;;;;;2.53;1.30;;;14.70;99.90;;;;;;5006382;28;20236;-67
2021/12/04 08:09:32;;;;;;;5.07;1.40;;;14.80;99.90;;;;;;5007565;28;20704;-66
2021/12/04 08:12:02;;;;;;;2.60;1.40;;;14.80;99.90;;;;;;5006889;28;20670;-66
2021/12/04 08:14:29;;;;;;;4.23;1.33;;;14.80;99.90;;;;;;5004693;28;20612;-66
2021/12/04 08:16:55;;;;;;;2.73;1.73;;;14.90;99.90;;;;;;5005151;28;20193;-66
2021/12/04 08:19:22;;;;;;;4.20;1.47;;;14.90;99.90;;;;;;5006133;28;20191;-65
2021/12/04 08:21:48;;;;;;;3.47;1.50;;;14.90;99.90;;;;;;4987270;28;20194;-65
2021/12/04 08:24:14;;;;;;;3.50;1.70;;;14.90;99.90;;;;;;5006300;28;20185;-66
2021/12/04 08:26:41;;;;;;;4.13;1.60;;;14.90;99.90;;;;;;5006495;28;20247;-66
2021/12/04 08:29:08;;;;;;;7.50;1.70;;;14.90;99.90;;;;;;5005293;28;20197;-67
2021/12/04 08:31:35;;;;;;;4.57;1.57;;;14.90;99.90;;;;;;5005231;28;20192;-66
2021/12/04 08:34:01;;;;;;;2.40;1.47;;;15.00;99.90;;;;;;5021213;28;20204;-67
2021/12/04 08:36:28;;;;;;;4.93;1.30;;;15.00;99.90;;;;;;5020459;28;20793;-66
2021/12/04 08:38:55;;;;;;;2.77;1.50;;;15.00;99.90;;;;;;5005569;28;20918;-67
2021/12/04 08:41:21;;;;;;;2.63;1.50;;;15.00;99.90;;;;;;5005936;28;20181;-66
2021/12/04 08:43:48;;;;;;;2.47;1.50;;;15.00;99.90;;;;;;5006259;28;20200;-67
2021/12/04 08:46:19;;;;;;;4.70;1.50;;;15.00;99.90;;;;;;4989084;28;20741;-67
2021/12/04 08:48:47;;;;;;;2.60;1.43;;;15.10;99.90;;;;;;5005116;28;20193;-67
2021/12/04 08:51:16;;;;;;;2.80;1.63;;;15.10;99.90;;;;;;5008719;28;20668;-67
2021/12/04 08:53:42;;;;;;;1.80;1.50;;;15.10;99.90;;;;;;4996778;28;20196;-67
2021/12/04 08:56:09;;;;;;;3.30;1.50;;;15.20;99.90;;;;;;5005997;28;20240;-67
2021/12/04 08:58:39;;;;;;;3.13;1.50;;;15.20;99.90;;;;;;5019484;28;20223;-66
2021/12/04 09:01:14;;;;;;;3.37;1.90;;;15.30;99.90;;;;;;5004494;28;20228;-66
2021/12/04 09:03:46;;;;;;;2.00;1.40;;;15.30;99.90;;;;;;5036586;28;20215;-66
2021/12/04 09:06:13;;;;;;;4.47;2.53;;;15.30;99.90;;;;;;5006416;28;20340;-66
2021/12/04 09:08:40;;;;;;;6.33;1.50;;;15.30;99.90;;;;;;5006733;28;20323;-66
2021/12/04 09:11:16;;;;;;;4.33;1.40;;;15.40;99.90;;;;;;5006692;28;20228;-66
2021/12/04 09:13:44;;;;;;;3.53;1.40;;;15.50;99.90;;;;;;4995579;28;20809;-66
2021/12/04 09:16:14;;;;;;;4.20;1.97;;;15.60;99.90;;;;;;5021228;28;20216;-66
2021/12/04 09:18:41;;;;;;;3.27;1.90;;;15.60;99.90;;;;;;5002938;28;20201;-66
2021/12/04 09:21:10;;;;;;;3.40;2.03;;;15.70;99.90;;;;;;5037232;28;20181;-66
2021/12/04 09:23:40;;;;;;;3.07;1.30;;;15.70;99.90;;;;;;5003233;28;20190;-66
2021/12/04 09:26:13;;;;;;;3.77;1.43;;;15.80;99.90;;;;;;5006004;28;20228;-66
2021/12/04 09:34:07;;;;;;;3.17;1.50;;;15.90;99.90;;;;;;5003883;28;20189;-66
2021/12/04 10:01:48;;;;;;;4.20;2.00;;;16.10;99.90;;;;;;4998713;28;20193;-67
2021/12/04 10:18:00;;;;;;;1.93;1.07;;;16.20;99.90;;;;;;5006375;28;20199;-66
2021/12/04 10:23:30;;;;;;;3.70;0.97;;;16.20;99.90;;;;;;5004989;28;20326;-66
2021/12/04 10:34:31;;;;;;;2.03;1.20;;;16.20;99.90;;;;;;5004945;28;20196;-67
2021/12/04 10:37:28;;;;;;;2.43;1.50;;;16.20;99.90;;;;;;5036316;28;20243;-66
2021/12/04 10:40:23;;;;;;;2.80;1.40;;;16.20;99.90;;;;;;5000802;28;20224;-66
2021/12/04 10:42:59;;;;;;;4.23;1.27;;;16.30;99.90;;;;;;5015733;28;20288;-66
2021/12/04 10:45:57;;;;;;;3.73;1.40;;;16.30;99.90;;;;;;5005860;28;20267;-66
2021/12/04 10:48:29;;;;;;;2.67;1.37;;;16.30;99.90;;;;;;5002217;28;20197;-66
2021/12/04 10:53:54;;;;;;;10.60;1.90;;;16.40;99.90;;;;;;5016633;28;20287;-66
2021/12/04 10:56:35;;;;;;;84.80;5.53;;;16.50;99.90;;;;;;5007050;28;20220;-66
2021/12/04 11:01:55;;;;;;;15.63;1.90;;;16.80;99.90;;;;;;5004313;28;20203;-66
2021/12/04 11:04:53;;;;;;;27.30;3.50;;;16.90;99.90;;;;;;5033967;28;20191;-66
2021/12/04 11:27:25;;;;;;;7.67;1.83;;;17.10;99.90;;;;;;5007049;28;20208;-66
2021/12/04 11:38:24;;;;;;;4.90;1.27;;;17.50;99.90;;;;;;5038378;28;20188;-65
2021/12/04 11:43:58;;;;;;;2.47;1.23;;;17.60;99.90;;;;;;5021090;28;20205;-66
2021/12/04 11:46:46;;;;;;;3.33;1.40;;;17.60;99.90;;;;;;5007856;28;20228;-65
2021/12/04 11:49:25;;;;;;;3.13;1.20;;;17.60;99.90;;;;;;5006566;28;20240;-65
2021/12/04 11:52:17;;;;;;;4.83;1.60;;;17.60;99.90;;;;;;5016820;28;20850;-66
2021/12/04 11:54:58;;;;;;;1.80;1.10;;;17.50;99.90;;;;;;5011977;28;20200;-65
2021/12/04 11:57:31;;;;;;;2.30;1.40;;;17.50;99.90;;;;;;5006927;28;20284;-66
2021/12/04 12:00:14;;;;;;;2.43;1.30;;;17.40;99.90;;;;;;5037080;28;20192;-65
2021/12/04 12:02:40;;;;;;;2.30;1.40;;;17.30;99.90;;;;;;5003039;28;20279;-66
2021/12/04 12:05:12;;;;;;;1.80;1.30;;;17.30;99.90;;;;;;5003308;28;20209;-66
2021/12/04 12:07:55;;;;;;;3.77;1.43;;;17.20;99.90;;;;;;5007795;28;20220;-66
2021/12/04 12:10:26;;;;;;;2.17;1.20;;;17.20;99.90;;;;;;4989709;28;20221;-65
2021/12/04 12:13:05;;;;;;;3.13;1.30;;;17.10;99.90;;;;;;5008308;28;20682;-66
2021/12/04 12:15:36;;;;;;;4.53;1.60;;;17.10;99.90;;;;;;5007534;28;21792;-66
2021/12/04 12:18:17;;;;;;;13.00;1.90;;;17.10;99.90;;;;;;5007385;28;20221;-66
2021/12/04 12:20:50;;;;;;;3.97;1.37;;;17.00;99.90;;;;;;5006880;28;20195;-66
2021/12/04 12:23:20;;;;;;;3.10;1.50;;;17.00;99.90;;;;;;5007857;28;20181;-66
2021/12/04 12:36:02;;;;;;;2.60;1.50;;;16.80;99.90;;;;;;4996342;28;20223;-66
2021/12/04 12:37:27;;;;;;;4.37;1.67;;;16.80;99.90;;;;;;5005678;28;20211;-66
2021/12/04 12:40:05;;;;;;;4.90;1.63;;;16.90;99.90;;;;;;5021228;28;20236;-66
2021/12/04 12:42:37;;;;;;;7.00;1.80;;;17.00;99.90;;;;;;5004472;28;20192;-65
2021/12/04 12:45:29;;;;;;;2.47;1.37;;;17.00;99.90;;;;;;5015496;28;20255;-66
2021/12/04 12:48:07;;;;;;;4.50;1.60;;;17.00;99.90;;;;;;5005855;28;20204;-65
2021/12/04 12:50:43;;;;;;;7.27;1.83;;;17.00;99.90;;;;;;5005832;28;20754;-65
2021/12/04 12:53:19;;;;;;;3.70;1.63;;;17.10;99.90;;;;;;5007136;28;20184;-66
2021/12/04 12:55:50;;;;;;;3.27;1.50;;;17.10;99.90;;;;;;5038844;28;20243;-65
2021/12/04 12:58:29;;;;;;;2.20;1.47;;;17.20;99.90;;;;;;5007202;28;20253;-66
2021/12/04 13:12:50;;;;;;;3.80;1.77;;;17.10;99.90;;;;;;5003472;28;20192;-63
2021/12/04 13:15:39;;;;;;;5.67;2.33;;;17.10;99.90;;;;;;5005438;28;20212;-64
2021/12/04 13:18:17;;;;;;;3.23;1.63;;;17.10;99.90;;;;;;5004033;28;20189;-64
2021/12/04 13:20:45;;;;;;;14.00;2.10;;;17.10;99.90;;;;;;5002747;28;20184;-64
2021/12/04 13:23:16;;;;;;;23.77;2.60;;;17.00;99.90;;;;;;5005191;28;20200;-63
2021/12/04 13:25:57;;;;;;;9.23;1.60;;;17.00;99.90;;;;;;5008684;28;20478;-63
2021/12/04 13:28:32;;;;;;;7.20;1.43;;;16.90;99.90;;;;;;4999771;28;20205;-64
2021/12/04 13:31:00;;;;;;;5.90;1.57;;;16.90;99.90;;;;;;5004489;28;20852;-63
2021/12/04 13:33:36;;;;;;;3.30;1.60;;;16.80;99.90;;;;;;5006109;28;20201;-63
2021/12/04 13:36:15;;;;;;;5.70;1.77;;;16.80;99.90;;;;;;5003652;28;20662;-63
2021/12/04 13:38:42;;;;;;;5.80;1.70;;;16.70;99.90;;;;;;5006795;28;20200;-63
2021/12/04 13:41:09;;;;;;;6.40;1.80;;;16.60;99.90;;;;;;5005395;28;20219;-63
2021/12/04 13:43:36;;;;;;;3.53;1.40;;;16.50;99.90;;;;;;5006216;28;20212;-63
2021/12/04 13:46:05;;;;;;;3.67;1.60;;;16.50;99.90;;;;;;5006806;28;20293;-64
2021/12/04 13:48:34;;;;;;;3.27;1.90;;;16.40;99.90;;;;;;5004986;28;20196;-64
2021/12/04 13:51:01;;;;;;;5.60;1.80;;;16.40;99.90;;;;;;5036645;28;20192;-64
2021/12/04 13:53:36;;;;;;;4.60;2.53;;;16.30;99.90;;;;;;5006162;28;20241;-64
2021/12/04 13:56:14;;;;;;;4.03;2.37;;;16.30;99.90;;;;;;5003913;28;20220;-63
2021/12/04 13:59:03;;;;;;;3.63;2.27;;;16.30;99.90;;;;;;5004372;28;20189;-63
2021/12/04 14:01:41;;;;;;;6.60;2.23;;;16.30;99.90;;;;;;5004846;28;20591;-63
2021/12/04 14:04:17;;;;;;;18.30;2.30;;;16.20;99.90;;;;;;5005014;28;20188;-64
2021/12/04 14:06:57;;;;;;;13.93;2.20;;;16.20;99.90;;;;;;5004893;28;20204;-63
2021/12/04 14:09:34;;;;;;;10.43;2.00;;;16.20;99.90;;;;;;5018674;28;20202;-63
2021/12/04 14:12:04;;;;;;;5.03;1.80;;;16.10;99.90;;;;;;5001505;28;20197;-63
2021/12/04 14:14:33;;;;;;;14.00;2.33;;;16.10;99.90;;;;;;5005586;28;20288;-63
2021/12/04 14:17:17;;;;;;;14.33;2.37;;;16.10;99.90;;;;;;5005907;28;20307;-63
2021/12/04 14:19:44;;;;;;;87.50;5.60;;;16.10;99.90;;;;;;4997541;28;20744;-63
2021/12/04 14:22:20;;;;;;;11.07;2.07;;;16.00;99.90;;;;;;5005468;28;20418;-64
2021/12/04 14:25:01;;;;;;;12.23;2.23;;;16.00;99.90;;;;;;4988161;28;20300;-63
2021/12/04 14:27:32;;;;;;;7.40;2.33;;;15.90;99.90;;;;;;5006388;28;20368;-63
2021/12/04 14:30:08;;;;;;;6.63;2.73;;;15.80;99.90;;;;;;5005918;28;20686;-63
2021/12/04 14:32:37;;;;;;;10.50;2.77;;;15.70;99.90;;;;;;5004116;28;20199;-63
2021/12/04 14:35:15;;;;;;;3.90;1.93;;;15.70;99.90;;;;;;5008258;28;20231;-65
2021/12/04 14:37:49;;;;;;;6.87;2.10;;;15.70;99.90;;;;;;5005044;28;20208;-64
2021/12/04 14:40:21;;;;;;;8.43;3.27;;;15.60;99.90;;;;;;5020289;28;20193;-64
2021/12/04 14:42:50;;;;;;;11.53;5.17;;;15.40;99.90;;;;;;5004770;28;20705;-64
2021/12/04 14:45:28;;;;;;;18.97;9.43;;;15.30;99.90;;;;;;5020239;28;20582;-65
2021/12/04 14:48:11;;;;;;;17.53;8.87;;;15.20;99.90;;;;;;5003678;28;20661;-64
2021/12/04 14:50:49;;;;;;;7.73;4.80;;;15.20;99.90;;;;;;5036538;28;20208;-65
2021/12/04 14:53:18;;;;;;;7.13;3.93;;;15.10;99.90;;;;;;5003883;28;20391;-64
2021/12/04 14:55:49;;;;;;;8.53;4.20;;;14.90;99.90;;;;;;5003729;28;20216;-65
2021/12/04 14:58:21;;;;;;;17.70;4.57;;;14.90;99.90;;;;;;5001820;28;20251;-67
2021/12/04 15:00:58;;;;;;;16.83;7.07;;;14.80;99.90;;;;;;5003967;28;20231;-64
2021/12/04 15:03:51;;;;;;;34.60;9.10;;;14.80;99.90;;;;;;5037358;28;20263;-67
2021/12/04 15:06:20;;;;;;;47.63;12.97;;;14.70;99.90;;;;;;5005011;28;20204;-66
2021/12/04 15:09:11;;;;;;;23.80;8.20;;;14.70;99.90;;;;;;5001356;28;20220;-66
2021/12/04 15:11:42;;;;;;;36.47;15.23;;;14.70;99.90;;;;;;5019348;28;20575;-66
2021/12/04 15:14:19;;;;;;;34.60;18.30;;;14.60;99.90;;;;;;5002459;28;20197;-66
2021/12/04 15:16:57;;;;;;;29.57;16.33;;;14.60;99.90;;;;;;5002551;28;20872;-64
2021/12/04 15:19:46;;;;;;;36.83;14.97;;;14.50;99.90;;;;;;4997878;28;20553;-64
2021/12/04 15:22:35;;;;;;;47.97;17.23;;;14.40;99.90;;;;;;5002263;28;20849;-63
2021/12/04 15:25:11;;;;;;;80.03;27.30;;;14.40;99.90;;;;;;5002325;28;20572;-63
2021/12/04 15:27:37;;;;;;;55.97;23.73;;;14.40;99.90;;;;;;5003741;28;20243;-64
2021/12/04 15:30:10;;;;;;;51.93;24.93;;;14.40;99.90;;;;;;5004370;28;20200;-64
2021/12/04 15:32:40;;;;;;;53.53;26.60;;;14.30;99.90;;;;;;5032193;28;20929;-64
2021/12/04 15:35:27;;;;;;;50.63;28.90;;;14.40;99.90;;;;;;5019861;28;20217;-64
2021/12/04 15:38:07;;;;;;;48.87;27.70;;;14.30;99.90;;;;;;4998992;28;20721;-64
2021/12/04 15:43:42;;;;;;;34.90;21.10;;;14.30;99.90;;;;;;5003016;28;20617;-64
2021/12/04 15:54:23;;;;;;;9.70;5.50;;;14.20;99.90;;;;;;4980690;28;20300;-63
2021/12/04 15:56:54;;;;;;;8.43;4.67;;;14.20;99.90;;;;;;5004308;28;21004;-64
2021/12/04 15:59:29;;;;;;;5.83;3.73;;;14.20;99.90;;;;;;5003241;28;20217;-63
2021/12/04 16:02:08;;;;;;;6.53;3.67;;;14.20;99.90;;;;;;5002043;28;20369;-64
2021/12/04 16:04:34;;;;;;;6.53;3.43;;;14.10;99.90;;;;;;5003581;28;20218;-63
2021/12/04 16:07:03;;;;;;;6.90;2.90;;;14.10;99.90;;;;;;5005875;28;20204;-63
2021/12/04 16:09:40;;;;;;;8.33;3.07;;;14.10;99.90;;;;;;5039932;28;20199;-63
2021/12/04 16:12:10;;;;;;;4.83;2.63;;;14.10;99.90;;;;;;5007442;28;20212;-63
2021/12/04 16:14:40;;;;;;;6.97;2.13;;;14.00;99.90;;;;;;5035493;28;20201;-64
2021/12/04 16:17:09;;;;;;;6.63;2.07;;;13.90;99.90;;;;;;5000729;28;20227;-63
2021/12/04 16:19:39;;;;;;;5.57;1.93;;;13.90;99.90;;;;;;5003940;28;20574;-64